createdAt,value
2018-05-26T00:01:34.678Z,14.60
2018-05-26T00:04:07.496Z,14.60
2018-05-26T00:06:35.796Z,14.60
2018-05-26T00:09:05.597Z,14.60
2018-05-26T00:11:33.147Z,14.70
2018-05-26T00:14:01.668Z,14.70
2018-05-26T00:16:31.632Z,14.90
2018-05-26T00:19:04.995Z,14.90
2018-05-26T00:21:39.163Z,15.10
2018-05-26T00:24:09.489Z,15.10
2018-05-26T00:26:38.643Z,15.10
2018-05-26T00:29:09.208Z,15.10
2018-05-26T00:31:37.645Z,15.10
2018-05-26T00:34:06.413Z,15.30
2018-05-26T00:36:41.686Z,15.20
2018-05-26T00:39:15.730Z,15.10
2018-05-26T00:41:43.315Z,14.90
2018-05-26T00:44:15.494Z,14.70
2018-05-26T00:46:43.525Z,14.70
2018-05-26T00:49:11.819Z,14.60
2018-05-26T00:51:41.174Z,14.60
2018-05-26T00:54:08.763Z,14.40
2018-05-26T00:56:39.737Z,14.40
2018-05-26T00:59:08.179Z,14.40
2018-05-26T01:01:37.176Z,14.40
2018-05-26T01:04:06.262Z,14.30
2018-05-26T01:06:35.059Z,14.30
2018-05-26T01:09:02.652Z,14.20
2018-05-26T01:11:31.720Z,14.00
2018-05-26T01:14:00.161Z,14.00
2018-05-26T01:16:27.688Z,13.90
2018-05-26T01:19:05.530Z,13.90
2018-05-26T01:24:07.995Z,13.90
2018-05-26T01:26:35.605Z,13.90
2018-05-26T01:29:12.638Z,13.90
2018-05-26T01:34:19.001Z,13.90
2018-05-26T01:36:49.705Z,13.80
2018-05-26T01:39:17.258Z,13.70
2018-05-26T01:41:52.681Z,13.70
2018-05-26T01:44:21.004Z,13.70
2018-05-26T01:46:50.023Z,13.60
2018-05-26T01:51:54.502Z,13.70
2018-05-26T01:54:25.485Z,13.80
2018-05-26T01:56:52.951Z,13.90
2018-05-26T01:59:20.825Z,14.00
2018-05-26T02:04:41.765Z,14.20
2018-05-26T02:07:13.392Z,14.10
2018-05-26T02:09:42.003Z,14.00
2018-05-26T02:12:13.397Z,13.90
2018-05-26T02:14:40.909Z,14.00
2018-05-26T02:17:09.980Z,14.00
2018-05-26T02:19:43.951Z,13.80
2018-05-26T02:22:12.161Z,13.70
2018-05-26T02:24:40.489Z,13.60
2018-05-26T02:27:16.508Z,13.60
2018-05-26T02:29:45.234Z,13.60
2018-05-26T02:32:12.833Z,13.60
2018-05-26T02:34:42.618Z,13.70
2018-05-26T02:37:10.892Z,13.90
2018-05-26T02:39:38.414Z,13.90
2018-05-26T02:42:06.039Z,13.90
2018-05-26T02:44:33.653Z,13.80
2018-05-26T02:47:09.442Z,13.90
2018-05-26T02:49:38.163Z,13.90
2018-05-26T02:52:14.677Z,13.80
2018-05-26T02:54:44.991Z,13.60
2018-05-26T02:57:13.517Z,13.60
2018-05-26T02:59:41.110Z,13.50
2018-05-26T03:04:49.633Z,13.50
2018-05-26T03:07:22.893Z,13.50
2018-05-26T03:09:58.528Z,13.40
2018-05-26T03:12:33.205Z,13.40
2018-05-26T03:15:00.883Z,13.40
2018-05-26T03:17:45.178Z,13.50
2018-05-26T03:20:13.784Z,13.40
2018-05-26T03:22:41.380Z,13.40
2018-05-26T03:25:10.023Z,13.30
2018-05-26T03:27:37.565Z,13.30
2018-05-26T03:30:07.666Z,13.30
2018-05-26T03:32:36.036Z,13.30
2018-05-26T03:35:07.109Z,13.40
2018-05-26T03:37:41.061Z,13.40
2018-05-26T03:40:17.317Z,13.40
2018-05-26T03:42:46.026Z,13.40
2018-05-26T03:45:23.228Z,13.40
2018-05-26T03:47:52.718Z,13.50
2018-05-26T03:50:20.897Z,13.50
2018-05-26T03:52:49.590Z,13.50
2018-05-26T03:58:57.944Z,13.60
2018-05-26T04:01:27.553Z,13.70
2018-05-26T04:03:57.865Z,13.70
2018-05-26T04:06:25.503Z,13.90
2018-05-26T04:08:54.771Z,13.90
2018-05-26T04:11:22.351Z,14.10
2018-05-26T04:13:51.551Z,14.20
2018-05-26T04:16:20.283Z,14.30
2018-05-26T04:18:48.582Z,14.40
2018-05-26T04:21:16.917Z,14.30
2018-05-26T04:23:47.589Z,14.50
2018-05-26T04:26:15.120Z,14.70
2018-05-26T04:28:52.496Z,14.90
2018-05-26T04:31:21.167Z,15.00
2018-05-26T04:33:55.265Z,15.20
2018-05-26T04:36:25.088Z,15.30
2018-05-26T04:38:56.060Z,15.60
2018-05-26T04:43:57.235Z,16.10
2018-05-26T04:46:26.487Z,16.20
2018-05-26T04:48:54.348Z,16.40
2018-05-26T04:51:24.032Z,16.50
2018-05-26T04:53:52.512Z,16.40
2018-05-26T04:56:21.496Z,16.30
2018-05-26T04:58:50.050Z,16.50
2018-05-26T05:01:21.972Z,16.70
2018-05-26T05:03:49.491Z,16.60
2018-05-26T05:06:19.144Z,16.90
2018-05-26T05:08:51.235Z,17.20
2018-05-26T05:11:21.943Z,17.50
2018-05-26T05:13:52.914Z,17.60
2018-05-26T05:16:20.415Z,17.80
2018-05-26T05:18:50.683Z,17.90
2018-05-26T05:21:20.489Z,18.00
2018-05-26T05:23:50.244Z,18.00
2018-05-26T05:26:30.677Z,18.10
2018-05-26T05:29:02.414Z,18.30
2018-05-26T05:31:38.076Z,18.60
2018-05-26T05:34:05.688Z,18.60
2018-05-26T05:36:40.935Z,18.70
2018-05-26T05:39:14.047Z,18.90
2018-05-26T05:41:42.693Z,18.90
2018-05-26T05:44:17.509Z,18.70
2018-05-26T05:46:46.945Z,18.60
2018-05-26T05:49:18.684Z,18.60
2018-05-26T05:51:52.005Z,18.70
2018-05-26T05:57:02.723Z,18.70
2018-05-26T05:59:40.264Z,18.70
2018-05-26T06:02:08.657Z,18.60
2018-05-26T06:04:37.780Z,18.50
2018-05-26T06:07:22.582Z,18.40
2018-05-26T06:09:54.460Z,18.30
2018-05-26T06:12:25.080Z,18.30
2018-05-26T06:15:00.081Z,18.40
2018-05-26T06:17:35.894Z,18.70
2018-05-26T06:20:06.942Z,18.80
2018-05-26T06:22:39.345Z,19.00
2018-05-26T06:25:14.116Z,19.50
2018-05-26T06:27:42.344Z,19.50
2018-05-26T06:30:12.398Z,20.10
2018-05-26T06:32:40.918Z,20.60
2018-05-26T06:35:10.626Z,21.00
2018-05-26T06:37:41.785Z,21.30
2018-05-26T06:40:09.866Z,21.50
2018-05-26T06:42:40.060Z,21.80
2018-05-26T06:45:07.585Z,22.10
2018-05-26T06:47:40.811Z,22.50
2018-05-26T06:50:08.333Z,22.80
2018-05-26T06:52:35.830Z,22.80
2018-05-26T06:55:03.313Z,23.10
2018-05-26T06:57:31.498Z,23.40
2018-05-26T06:59:58.982Z,23.90
2018-05-26T07:02:26.494Z,24.30
2018-05-26T07:04:53.997Z,24.20
2018-05-26T07:07:23.248Z,24.20
2018-05-26T07:09:50.721Z,24.90
2018-05-26T07:12:18.603Z,24.90
2018-05-26T07:14:46.124Z,25.20
2018-05-26T07:17:14.213Z,25.40
2018-05-26T07:19:43.153Z,25.70
2018-05-26T07:22:11.430Z,25.40
2018-05-26T07:24:38.954Z,25.10
2018-05-26T07:27:06.635Z,24.80
2018-05-26T07:29:34.086Z,25.30
2018-05-26T07:32:01.639Z,25.90
2018-05-26T07:34:29.121Z,26.50
2018-05-26T07:36:57.376Z,25.40
2018-05-26T07:39:24.944Z,25.40
2018-05-26T07:41:52.433Z,24.40
2018-05-26T07:44:20.363Z,24.60
2018-05-26T07:46:47.875Z,24.90
2018-05-26T07:49:15.369Z,25.20
2018-05-26T07:51:43.409Z,25.80
2018-05-26T07:54:11.581Z,26.00
2018-05-26T07:56:39.270Z,25.60
2018-05-26T07:59:11.020Z,25.50
2018-05-26T08:01:39.146Z,25.60
2018-05-26T08:04:07.420Z,25.00
2018-05-26T08:06:34.897Z,25.00
2018-05-26T08:09:02.401Z,25.20
2018-05-26T08:11:30.595Z,25.40
2018-05-26T08:13:58.078Z,25.70
2018-05-26T08:16:25.596Z,26.20
2018-05-26T08:18:54.074Z,26.00
2018-05-26T08:21:21.574Z,25.80
2018-05-26T08:23:49.064Z,25.80
2018-05-26T08:26:16.529Z,26.00
2018-05-26T08:28:44.045Z,25.80
2018-05-26T08:31:12.984Z,26.00
2018-05-26T08:33:40.821Z,25.90
2018-05-26T08:36:08.311Z,26.00
2018-05-26T08:38:35.820Z,25.90
2018-05-26T08:41:04.101Z,26.10
2018-05-26T08:43:32.566Z,26.10
2018-05-26T08:46:00.831Z,26.10
2018-05-26T08:48:28.376Z,26.10
2018-05-26T08:50:55.875Z,25.10
2018-05-26T08:53:24.239Z,24.40
2018-05-26T08:55:51.711Z,24.50
2018-05-26T08:58:20.379Z,24.70
2018-05-26T09:00:48.650Z,25.10
2018-05-26T09:03:16.130Z,25.10
2018-05-26T09:05:43.637Z,25.30
2018-05-26T09:08:11.153Z,25.80
2018-05-26T09:10:38.652Z,25.70
2018-05-26T09:13:06.194Z,25.20
2018-05-26T09:15:33.722Z,25.30
2018-05-26T09:18:02.153Z,25.30
2018-05-26T09:20:29.666Z,25.00
2018-05-26T09:22:57.143Z,24.60
2018-05-26T09:25:25.262Z,24.70
2018-05-26T09:27:54.095Z,25.10
2018-05-26T09:30:22.296Z,25.40
2018-05-26T09:32:49.767Z,25.10
2018-05-26T09:35:18.307Z,28.70
2018-05-26T09:37:45.841Z,25.30
2018-05-26T09:40:14.138Z,24.80
2018-05-26T09:42:42.976Z,24.80
2018-05-26T09:45:10.454Z,25.00
2018-05-26T09:47:38.164Z,25.10
2018-05-26T09:50:05.673Z,25.60
2018-05-26T09:52:34.597Z,25.70
2018-05-26T09:55:03.841Z,26.00
2018-05-26T09:57:31.300Z,26.10
2018-05-26T09:59:58.790Z,26.00
2018-05-26T10:02:27.553Z,25.80
2018-05-26T10:04:55.089Z,25.60
2018-05-26T10:07:23.111Z,25.70
2018-05-26T10:09:50.652Z,25.70
2018-05-26T10:12:18.122Z,25.80
2018-05-26T10:14:46.455Z,25.60
2018-05-26T10:17:13.938Z,25.50
2018-05-26T10:19:42.040Z,25.60
2018-05-26T10:22:09.840Z,25.50
2018-05-26T10:24:37.452Z,25.60
2018-05-26T10:27:04.969Z,25.70
2018-05-26T10:29:33.780Z,26.20
2018-05-26T10:32:04.934Z,26.20
2018-05-26T10:34:32.472Z,25.70
2018-05-26T10:37:00.010Z,25.60
2018-05-26T10:39:27.542Z,25.40
2018-05-26T10:41:55.027Z,25.20
2018-05-26T10:44:24.014Z,25.60
2018-05-26T10:46:51.510Z,25.50
2018-05-26T10:49:20.646Z,25.50
2018-05-26T10:51:49.927Z,25.70
2018-05-26T10:54:17.437Z,26.10
2018-05-26T10:56:46.196Z,26.00
2018-05-26T10:59:13.675Z,25.80
2018-05-26T11:01:41.159Z,26.20
2018-05-26T11:04:08.753Z,26.60
2018-05-26T11:06:48.663Z,26.50
2018-05-26T11:09:16.154Z,26.40
2018-05-26T11:11:44.391Z,26.30
2018-05-26T11:14:11.899Z,26.30
2018-05-26T11:16:39.389Z,26.00
2018-05-26T11:19:06.854Z,26.00
2018-05-26T11:21:34.370Z,26.20
2018-05-26T11:24:02.062Z,26.40
2018-05-26T11:26:31.447Z,26.50
2018-05-26T11:28:59.044Z,26.40
2018-05-26T11:31:30.591Z,26.40
2018-05-26T11:33:58.135Z,26.30
2018-05-26T11:36:27.533Z,26.40
2018-05-26T11:38:56.192Z,26.50
2018-05-26T11:41:24.250Z,26.40
2018-05-26T11:43:55.139Z,26.60
2018-05-26T11:46:22.697Z,26.70
2018-05-26T11:48:55.701Z,26.50
2018-05-26T11:51:25.914Z,26.80
2018-05-26T11:53:57.459Z,26.80
2018-05-26T11:56:25.839Z,26.90
2018-05-26T11:59:07.477Z,27.00
2018-05-26T12:01:34.960Z,27.00
2018-05-26T12:04:02.463Z,27.00
2018-05-26T12:06:29.980Z,27.20
2018-05-26T12:08:57.511Z,27.20
2018-05-26T12:11:25.609Z,27.70
2018-05-26T12:13:55.285Z,28.00
2018-05-26T12:16:22.897Z,28.10
2018-05-26T12:18:50.342Z,28.50
2018-05-26T12:21:17.862Z,28.50
2018-05-26T12:23:45.444Z,29.10
2018-05-26T12:26:12.999Z,29.20
2018-05-26T12:28:43.817Z,29.70
2018-05-26T12:31:12.068Z,29.80
2018-05-26T12:33:39.587Z,29.80
2018-05-26T12:36:07.833Z,29.90
2018-05-26T12:38:35.333Z,30.00
2018-05-26T12:41:02.817Z,29.70
2018-05-26T12:43:30.819Z,29.30
2018-05-26T12:45:58.302Z,29.40
2018-05-26T12:48:26.051Z,29.40
2018-05-26T12:50:53.577Z,29.60
2018-05-26T12:53:21.086Z,29.50
2018-05-26T12:55:48.568Z,29.30
2018-05-26T12:58:17.353Z,30.60
2018-05-26T13:00:44.891Z,31.00
2018-05-26T13:03:13.163Z,31.20
2018-05-26T13:05:42.153Z,30.70
2018-05-26T13:08:09.650Z,30.40
2018-05-26T13:10:37.147Z,29.70
2018-05-26T13:13:05.393Z,29.80
2018-05-26T13:15:32.886Z,29.70
2018-05-26T13:18:01.145Z,29.20
2018-05-26T13:23:23.181Z,30.10
2018-05-26T13:25:50.675Z,30.40
2018-05-26T13:28:18.158Z,30.60
2018-05-26T13:30:46.327Z,30.80
2018-05-26T13:33:13.831Z,31.30
2018-05-26T13:35:41.314Z,31.90
2018-05-26T13:38:08.791Z,32.30
2018-05-26T13:40:36.323Z,32.10
2018-05-26T13:43:04.927Z,31.80
2018-05-26T13:45:34.789Z,31.80
2018-05-26T13:48:02.294Z,31.90
2018-05-26T13:50:29.875Z,31.20
2018-05-26T13:52:57.965Z,30.70
2018-05-26T13:55:25.433Z,30.30
2018-05-26T13:57:52.969Z,31.30
2018-05-26T14:00:20.475Z,32.40
2018-05-26T14:02:47.988Z,32.40
2018-05-26T14:05:15.459Z,32.20
2018-05-26T14:07:43.807Z,32.40
2018-05-26T14:10:11.302Z,32.90
2018-05-26T14:12:38.797Z,32.80
2018-05-26T14:15:07.944Z,32.40
2018-05-26T14:17:35.415Z,32.40
2018-05-26T14:20:02.921Z,32.60
2018-05-26T14:22:31.247Z,32.70
2018-05-26T14:24:59.422Z,32.50
2018-05-26T14:27:26.954Z,31.50
2018-05-26T14:29:54.441Z,31.80
2018-05-26T14:32:21.944Z,32.10
2018-05-26T14:34:49.438Z,32.00
2018-05-26T14:37:17.564Z,32.00
2018-05-26T14:39:45.090Z,32.00
2018-05-26T14:42:12.621Z,31.60
2018-05-26T14:44:42.450Z,32.10
2018-05-26T14:47:10.044Z,32.20
2018-05-26T14:49:37.544Z,32.50
2018-05-26T14:52:05.990Z,32.40
2018-05-26T14:54:33.465Z,31.90
2018-05-26T14:57:01.041Z,31.30
2018-05-26T14:59:29.904Z,31.50
2018-05-26T15:01:57.408Z,31.80
2018-05-26T15:04:24.993Z,31.10
2018-05-26T15:06:53.814Z,32.10
2018-05-26T15:09:21.830Z,32.90
2018-05-26T15:11:49.320Z,32.70
2018-05-26T15:14:18.139Z,33.60
2018-05-26T15:16:45.676Z,31.90
2018-05-26T15:19:16.796Z,33.90
2018-05-26T15:21:46.011Z,34.00
2018-05-26T15:24:15.619Z,33.50
2018-05-26T15:26:43.151Z,32.80
2018-05-26T15:29:10.721Z,33.10
2018-05-26T15:31:38.234Z,33.60
2018-05-26T15:34:05.753Z,32.60
2018-05-26T15:36:33.688Z,32.20
2018-05-26T15:39:01.176Z,31.90
2018-05-26T15:41:28.704Z,31.60
2018-05-26T15:43:56.194Z,32.20
2018-05-26T15:46:23.800Z,32.40
2018-05-26T15:48:51.845Z,32.20
2018-05-26T15:51:19.340Z,32.30
2018-05-26T15:53:51.171Z,31.90
2018-05-26T15:56:18.663Z,32.70
2018-05-26T15:58:47.322Z,33.70
2018-05-26T16:01:14.850Z,34.00
2018-05-26T16:03:42.417Z,33.90
2018-05-26T16:06:10.643Z,32.20
2018-05-26T16:08:38.147Z,32.10
2018-05-26T16:11:06.382Z,30.60
2018-05-26T16:13:34.445Z,30.60
2018-05-26T16:16:01.940Z,30.40
2018-05-26T16:18:30.168Z,30.40
2018-05-26T16:20:58.504Z,30.40
2018-05-26T16:23:26.703Z,30.70
2018-05-26T16:25:54.171Z,31.00
2018-05-26T16:28:21.659Z,30.60
2018-05-26T16:30:49.136Z,30.00
2018-05-26T16:33:16.642Z,28.90
2018-05-26T16:35:44.832Z,28.80
2018-05-26T16:38:12.332Z,28.90
2018-05-26T16:40:40.607Z,27.90
2018-05-26T16:43:08.129Z,27.80
2018-05-26T16:45:35.665Z,27.40
2018-05-26T16:48:03.162Z,28.00
2018-05-26T16:50:30.968Z,28.30
2018-05-26T16:52:59.236Z,28.00
2018-05-26T16:55:26.717Z,28.00
2018-05-26T16:57:54.213Z,27.80
2018-05-26T17:00:21.697Z,27.50
2018-05-26T17:02:50.032Z,27.30
2018-05-26T17:05:17.556Z,27.20
2018-05-26T17:07:45.048Z,27.40
2018-05-26T17:10:12.548Z,27.40
2018-05-26T17:12:40.012Z,27.20
2018-05-26T17:15:08.263Z,26.90
2018-05-26T17:17:35.757Z,26.90
2018-05-26T17:20:03.249Z,27.10
2018-05-26T17:22:30.776Z,27.30
2018-05-26T17:24:58.276Z,27.30
2018-05-26T17:27:25.782Z,27.10
2018-05-26T17:29:53.854Z,26.90
2018-05-26T17:32:21.348Z,26.70
2018-05-26T17:34:48.854Z,26.50
2018-05-26T17:37:16.466Z,26.20
2018-05-26T17:39:43.956Z,26.00
2018-05-26T17:42:11.462Z,25.70
2018-05-26T17:44:38.953Z,25.60
2018-05-26T17:47:09.713Z,25.40
2018-05-26T17:49:37.217Z,25.20
2018-05-26T17:52:05.690Z,25.30
2018-05-26T17:54:33.275Z,25.10
2018-05-26T17:57:02.094Z,25.10
2018-05-26T17:59:29.652Z,25.10
2018-05-26T18:01:57.881Z,25.20
2018-05-26T18:04:25.429Z,25.10
2018-05-26T18:06:52.986Z,25.10
2018-05-26T18:09:21.411Z,25.00
2018-05-26T18:11:49.294Z,24.90
2018-05-26T18:14:17.067Z,24.70
2018-05-26T18:16:44.572Z,24.60
2018-05-26T18:19:12.056Z,24.60
2018-05-26T18:21:39.541Z,24.60
2018-05-26T18:24:07.286Z,24.60
2018-05-26T18:26:34.770Z,24.50
2018-05-26T18:29:02.694Z,24.50
2018-05-26T18:31:30.327Z,24.50
2018-05-26T18:33:57.798Z,24.40
2018-05-26T18:36:25.314Z,24.40
2018-05-26T18:38:52.788Z,24.30
2018-05-26T18:41:21.071Z,24.10
2018-05-26T18:43:49.453Z,24.00
2018-05-26T18:46:16.980Z,24.00
2018-05-26T18:48:44.509Z,23.80
2018-05-26T18:51:11.990Z,23.70
2018-05-26T18:53:39.483Z,23.60
2018-05-26T18:56:07.046Z,23.50
2018-05-26T18:58:34.514Z,23.40
2018-05-26T19:01:02.037Z,23.30
2018-05-26T19:03:29.540Z,23.20
2018-05-26T19:05:57.052Z,23.10
2018-05-26T19:08:24.596Z,23.00
2018-05-26T19:10:52.269Z,22.90
2018-05-26T19:13:20.557Z,22.50
2018-05-26T19:15:48.871Z,22.30
2018-05-26T19:18:16.327Z,22.20
2018-05-26T19:20:43.846Z,22.10
2018-05-26T19:23:11.394Z,22.00
2018-05-26T19:25:38.909Z,22.00
2018-05-26T19:28:06.400Z,21.90
2018-05-26T19:30:34.667Z,21.60
2018-05-26T19:33:02.177Z,21.50
2018-05-26T19:35:29.648Z,21.50
2018-05-26T19:37:57.180Z,21.30
2018-05-26T19:40:26.942Z,21.10
2018-05-26T19:42:54.464Z,21.00
2018-05-26T19:45:23.349Z,20.90
2018-05-26T19:47:51.588Z,20.80
2018-05-26T19:50:19.152Z,20.80
2018-05-26T19:52:46.658Z,20.70
2018-05-26T19:55:14.257Z,20.80
2018-05-26T19:57:41.774Z,20.70
2018-05-26T20:00:09.321Z,20.60
2018-05-26T20:02:36.850Z,20.50
2018-05-26T20:05:04.429Z,20.40
2018-05-26T20:07:32.787Z,20.20
2018-05-26T20:10:00.310Z,20.10
2018-05-26T20:12:27.809Z,20.10
2018-05-26T20:14:55.322Z,19.90
2018-05-26T20:17:22.809Z,19.80
2018-05-26T20:19:50.853Z,19.70
2018-05-26T20:22:18.359Z,19.70
2018-05-26T20:24:45.860Z,19.70
2018-05-26T20:27:13.381Z,19.70
2018-05-26T20:29:41.630Z,19.40
2018-05-26T20:32:09.118Z,19.40
2018-05-26T20:34:36.618Z,19.30
2018-05-26T20:37:04.492Z,19.10
2018-05-26T20:39:31.982Z,18.90
2018-05-26T20:41:59.497Z,18.70
2018-05-26T20:44:27.005Z,18.60
2018-05-26T20:46:54.507Z,18.60
2018-05-26T20:49:23.110Z,18.50
2018-05-26T20:51:50.666Z,18.40
2018-05-26T20:54:18.126Z,18.30
2018-05-26T20:56:45.610Z,18.20
2018-05-26T20:59:13.129Z,18.20
2018-05-26T21:01:40.626Z,18.20
2018-05-26T21:04:08.202Z,18.20
2018-05-26T21:06:36.515Z,18.50
2018-05-26T21:09:04.021Z,18.40
2018-05-26T21:11:31.527Z,18.50
2018-05-26T21:13:59.162Z,18.40
2018-05-26T21:16:26.975Z,18.20
2018-05-26T21:18:54.536Z,18.20
2018-05-26T21:21:22.122Z,18.10
2018-05-26T21:23:49.663Z,17.90
2018-05-26T21:26:18.015Z,17.90
2018-05-26T21:28:45.613Z,17.80
2018-05-26T21:31:13.939Z,17.70
2018-05-26T21:33:42.467Z,17.60
2018-05-26T21:36:09.994Z,17.60
2018-05-26T21:38:37.494Z,17.70
2018-05-26T21:41:05.007Z,17.70
2018-05-26T21:43:32.493Z,17.70
2018-05-26T21:45:59.974Z,17.60
2018-05-26T21:48:27.535Z,17.60
2018-05-26T21:50:55.026Z,17.40
2018-05-26T21:53:23.284Z,17.30
2018-05-26T21:55:51.550Z,17.30
2018-05-26T21:58:19.085Z,17.30
2018-05-26T22:00:46.641Z,17.40
2018-05-26T22:03:14.236Z,17.40
2018-05-26T22:05:43.230Z,17.50
2018-05-26T22:08:28.359Z,17.40
2018-05-26T22:10:55.855Z,17.30
2018-05-26T22:13:23.343Z,17.20
2018-05-26T22:15:50.843Z,17.10
2018-05-26T22:18:18.374Z,16.90
2018-05-26T22:20:46.530Z,17.00
2018-05-26T22:23:14.046Z,17.00
2018-05-26T22:25:41.542Z,17.00
2018-05-26T22:28:09.043Z,17.00
2018-05-26T22:30:36.556Z,17.00
2018-05-26T22:33:04.040Z,17.00
2018-05-26T22:35:31.683Z,17.00
2018-05-26T22:37:59.170Z,16.90
2018-05-26T22:40:28.348Z,16.80
2018-05-26T22:42:55.866Z,16.70
2018-05-26T22:45:23.371Z,16.80
2018-05-26T22:47:50.859Z,16.80
2018-05-26T22:50:18.342Z,16.80
2018-05-26T22:52:45.826Z,16.80
2018-05-26T22:55:13.333Z,16.80
2018-05-26T22:57:40.813Z,16.80
2018-05-26T23:00:08.300Z,16.80
2018-05-26T23:02:35.829Z,16.80
2018-05-26T23:05:03.309Z,16.80
2018-05-26T23:07:30.822Z,16.70
2018-05-26T23:09:58.296Z,16.70
2018-05-26T23:12:25.902Z,16.60
2018-05-26T23:14:53.411Z,16.80
2018-05-26T23:17:20.882Z,16.70
2018-05-26T23:19:48.391Z,16.60
2018-05-26T23:22:15.905Z,16.80
2018-05-26T23:24:43.385Z,16.70
2018-05-26T23:27:12.149Z,16.60
2018-05-26T23:29:40.420Z,16.60
2018-05-26T23:32:07.971Z,16.60
2018-05-26T23:34:35.461Z,16.60
2018-05-26T23:37:02.945Z,16.60
2018-05-26T23:39:30.425Z,16.60
2018-05-26T23:41:57.903Z,16.50
2018-05-26T23:44:25.442Z,16.50
2018-05-26T23:46:52.886Z,16.50
2018-05-26T23:49:20.364Z,16.60
2018-05-26T23:51:47.883Z,16.70
2018-05-26T23:54:15.369Z,16.70
2018-05-26T23:56:42.879Z,16.70
2018-05-26T23:59:10.452Z,16.60
